createdAt,value
2018-12-17T00:01:31.578Z,100433
2018-12-17T00:04:00.412Z,100432
2018-12-17T00:06:29.249Z,100425
2018-12-17T00:08:58.071Z,100428
2018-12-17T00:11:26.906Z,100423
2018-12-17T00:13:55.786Z,100434
2018-12-17T00:16:24.620Z,100433
2018-12-17T00:18:53.458Z,100425
2018-12-17T00:21:22.309Z,100432
2018-12-17T00:23:51.142Z,100431
2018-12-17T00:26:19.979Z,100432
2018-12-17T00:28:48.815Z,100433
2018-12-17T00:31:17.659Z,100431
2018-12-17T00:33:46.495Z,100431
2018-12-17T00:36:15.345Z,100430
2018-12-17T00:38:44.174Z,100429
2018-12-17T00:41:13.027Z,100433
2018-12-17T00:43:41.857Z,100434
2018-12-17T00:46:10.710Z,100435
2018-12-17T00:48:39.543Z,100436
2018-12-17T00:51:08.380Z,100426
2018-12-17T00:53:37.208Z,100430
2018-12-17T00:56:06.791Z,100432
2018-12-17T00:58:35.614Z,100430
2018-12-17T01:01:05.215Z,100433
2018-12-17T01:03:34.801Z,100430
2018-12-17T01:06:03.626Z,100435
2018-12-17T01:08:32.466Z,100431
2018-12-17T01:11:01.287Z,100435
2018-12-17T01:13:30.869Z,100437
2018-12-17T01:15:59.705Z,100434
2018-12-17T01:18:28.547Z,100443
2018-12-17T01:20:57.373Z,100445
2018-12-17T01:23:26.213Z,100446
2018-12-17T01:25:55.040Z,100448
2018-12-17T01:28:23.881Z,100450
2018-12-17T01:30:52.783Z,100454
2018-12-17T01:33:21.551Z,100461
2018-12-17T01:35:50.391Z,100468
2018-12-17T01:38:19.967Z,100466
2018-12-17T01:40:48.810Z,100467
2018-12-17T01:43:17.660Z,100459
2018-12-17T01:45:46.510Z,100451
2018-12-17T01:48:15.328Z,100459
2018-12-17T01:50:44.161Z,100455
2018-12-17T01:53:12.982Z,100465
2018-12-17T01:55:41.811Z,100465
2018-12-17T01:58:10.642Z,100466
2018-12-17T02:00:39.485Z,100472
2018-12-17T02:03:08.330Z,100464
2018-12-17T02:05:37.159Z,100468
2018-12-17T02:08:06.007Z,100471
2018-12-17T02:10:34.848Z,100466
2018-12-17T02:13:03.680Z,100477
2018-12-17T02:15:32.505Z,100466
2018-12-17T02:18:01.341Z,100479
2018-12-17T02:20:30.249Z,100484
2018-12-17T02:22:59.020Z,100493
2018-12-17T02:25:27.862Z,100491
2018-12-17T02:27:56.689Z,100488
2018-12-17T02:30:25.528Z,100487
2018-12-17T02:32:54.351Z,100486
2018-12-17T02:35:25.202Z,100492
2018-12-17T02:37:52.759Z,100502
2018-12-17T02:40:21.597Z,100491
2018-12-17T02:42:50.428Z,100498
2018-12-17T02:45:20.011Z,100503
2018-12-17T02:47:48.850Z,100512
2018-12-17T02:50:17.685Z,100513
2018-12-17T02:52:46.507Z,100514
2018-12-17T02:55:16.081Z,100515
2018-12-17T02:57:44.933Z,100514
2018-12-17T03:00:13.824Z,100517
2018-12-17T03:02:42.672Z,100528
2018-12-17T03:05:11.512Z,100531
2018-12-17T03:07:40.352Z,100532
2018-12-17T03:10:09.190Z,100536
2018-12-17T03:12:38.032Z,100536
2018-12-17T03:15:07.606Z,100546
2018-12-17T03:17:36.443Z,100553
2018-12-17T03:20:05.290Z,100549
2018-12-17T03:22:34.144Z,100556
2018-12-17T03:25:02.984Z,100549
2018-12-17T03:27:31.847Z,100553
2018-12-17T03:30:00.686Z,100554
2018-12-17T03:32:29.531Z,100563
2018-12-17T03:34:59.110Z,100569
2018-12-17T03:37:27.948Z,100579
2018-12-17T03:39:57.532Z,100580
2018-12-17T03:42:26.388Z,100591
2018-12-17T03:44:55.221Z,100590
2018-12-17T03:47:24.079Z,100592
2018-12-17T03:49:52.925Z,100583
2018-12-17T03:52:21.767Z,100592
2018-12-17T03:54:50.630Z,100592
2018-12-17T03:57:19.459Z,100596
2018-12-17T03:59:48.303Z,100598
2018-12-17T04:02:17.148Z,100602
2018-12-17T04:04:46.061Z,100594
2018-12-17T04:07:14.839Z,100603
2018-12-17T04:09:43.688Z,100603
2018-12-17T04:12:12.530Z,100598
2018-12-17T04:14:41.445Z,100600
2018-12-17T04:17:10.240Z,100613
2018-12-17T04:19:39.071Z,100610
2018-12-17T04:22:07.937Z,100613
2018-12-17T04:24:36.766Z,100618
2018-12-17T04:27:05.611Z,100621
2018-12-17T04:29:34.447Z,100626
2018-12-17T04:32:03.302Z,100625
2018-12-17T04:34:32.139Z,100625
2018-12-17T04:37:00.985Z,100626
2018-12-17T04:39:29.839Z,100641
2018-12-17T04:41:58.688Z,100627
2018-12-17T04:44:27.551Z,100643
2018-12-17T04:46:56.389Z,100639
2018-12-17T04:49:25.237Z,100638
2018-12-17T04:51:54.082Z,100640
2018-12-17T04:54:22.929Z,100626
2018-12-17T04:56:51.788Z,100631
2018-12-17T04:59:20.620Z,100642
2018-12-17T05:01:49.472Z,100642
2018-12-17T05:04:18.300Z,100645
2018-12-17T05:06:47.149Z,100643
2018-12-17T05:09:16.731Z,100641
2018-12-17T05:11:45.585Z,100651
2018-12-17T05:14:14.421Z,100654
2018-12-17T05:16:43.288Z,100653
2018-12-17T05:19:12.127Z,100657
2018-12-17T05:21:40.962Z,100662
2018-12-17T05:24:09.809Z,100662
2018-12-17T05:26:38.652Z,100669
2018-12-17T05:29:07.501Z,100666
2018-12-17T05:31:36.357Z,100670
2018-12-17T05:34:05.217Z,100676
2018-12-17T05:36:34.063Z,100680
2018-12-17T05:39:02.912Z,100692
2018-12-17T05:41:31.767Z,100694
2018-12-17T05:44:00.595Z,100690
2018-12-17T05:46:29.427Z,100694
2018-12-17T05:48:58.279Z,100697
2018-12-17T05:51:27.121Z,100698
2018-12-17T05:53:55.977Z,100703
2018-12-17T05:56:24.830Z,100708
2018-12-17T05:58:53.728Z,100720
2018-12-17T06:01:23.291Z,100713
2018-12-17T06:03:52.129Z,100715
2018-12-17T06:06:20.977Z,100711
2018-12-17T06:08:50.553Z,100721
2018-12-17T06:11:19.396Z,100725
2018-12-17T06:13:48.249Z,100734
2018-12-17T06:16:17.099Z,100735
2018-12-17T06:18:45.960Z,100736
2018-12-17T06:21:14.815Z,100735
2018-12-17T06:23:43.673Z,100748
2018-12-17T06:26:12.517Z,100748
2018-12-17T06:28:42.140Z,100751
2018-12-17T06:31:10.996Z,100757
2018-12-17T06:33:39.833Z,100755
2018-12-17T06:36:08.669Z,100748
2018-12-17T06:38:38.105Z,100761
2018-12-17T06:41:06.953Z,100767
2018-12-17T06:43:35.805Z,100776
2018-12-17T06:46:04.653Z,100768
2018-12-17T06:48:33.491Z,100776
2018-12-17T06:51:02.322Z,100783
2018-12-17T06:53:31.171Z,100787
2018-12-17T06:56:00.002Z,100788
2018-12-17T06:58:28.855Z,100783
2018-12-17T07:00:57.715Z,100791
2018-12-17T07:03:26.564Z,100788
2018-12-17T07:05:55.403Z,100784
2018-12-17T07:08:24.255Z,100788
2018-12-17T07:10:53.089Z,100796
2018-12-17T07:13:21.928Z,100791
2018-12-17T07:15:50.776Z,100799
2018-12-17T07:18:19.620Z,100805
2018-12-17T07:20:49.213Z,100806
2018-12-17T07:23:18.797Z,100818
2018-12-17T07:25:47.652Z,100819
2018-12-17T07:28:16.485Z,100830
2018-12-17T07:30:45.310Z,100835
2018-12-17T07:33:14.163Z,100845
2018-12-17T07:35:43.743Z,100853
2018-12-17T07:38:12.583Z,100855
2018-12-17T07:40:42.166Z,100859
2018-12-17T07:43:11.013Z,100861
2018-12-17T07:45:39.847Z,100865
2018-12-17T07:48:08.689Z,100867
2018-12-17T07:50:37.516Z,100871
2018-12-17T07:53:06.359Z,100878
2018-12-17T07:55:35.206Z,100879
2018-12-17T07:58:04.080Z,100877
2018-12-17T08:00:32.932Z,100877
2018-12-17T08:03:01.713Z,100891
2018-12-17T08:05:30.557Z,100892
2018-12-17T08:07:59.407Z,100892
2018-12-17T08:10:28.242Z,100907
2018-12-17T08:12:57.077Z,100911
2018-12-17T08:15:25.919Z,100908
2018-12-17T08:18:12.519Z,100913
2018-12-17T08:20:41.375Z,100925
2018-12-17T08:23:10.214Z,100919
2018-12-17T08:25:39.790Z,100918
2018-12-17T08:28:08.628Z,100920
2018-12-17T08:30:37.488Z,100928
2018-12-17T08:33:06.331Z,100929
2018-12-17T08:35:35.218Z,100920
2018-12-17T08:38:04.039Z,100921
2018-12-17T08:40:32.874Z,100920
2018-12-17T08:43:01.713Z,100931
2018-12-17T08:45:30.572Z,100929
2018-12-17T08:47:59.383Z,100936
2018-12-17T08:50:28.227Z,100942
2018-12-17T08:52:57.075Z,100949
2018-12-17T08:55:25.955Z,100948
2018-12-17T08:57:54.765Z,100946
2018-12-17T09:00:23.629Z,100963
2018-12-17T09:02:52.473Z,100963
2018-12-17T09:05:21.311Z,100963
2018-12-17T09:07:50.157Z,100969
2018-12-17T09:10:19.004Z,100977
2018-12-17T09:12:47.843Z,100978
2018-12-17T09:15:16.693Z,100989
2018-12-17T09:17:46.283Z,100990
2018-12-17T09:20:15.136Z,100996
2018-12-17T09:22:43.994Z,100991
2018-12-17T09:25:12.829Z,100986
2018-12-17T09:27:41.661Z,100996
2018-12-17T09:30:18.072Z,100998
2018-12-17T09:32:40.091Z,101002
2018-12-17T09:35:08.926Z,100995
2018-12-17T09:37:37.767Z,101002
2018-12-17T09:40:06.610Z,101000
2018-12-17T09:42:35.437Z,101002
2018-12-17T09:45:04.294Z,101007
2018-12-17T09:47:33.888Z,101002
2018-12-17T09:50:02.730Z,101004
2018-12-17T09:52:31.572Z,101011
2018-12-17T09:55:00.401Z,101004
2018-12-17T09:57:29.259Z,101010
2018-12-17T09:59:58.123Z,101011
2018-12-17T10:02:26.973Z,101012
2018-12-17T10:04:55.811Z,101015
2018-12-17T10:07:30.320Z,101019
2018-12-17T10:09:53.495Z,101017
2018-12-17T10:12:22.337Z,101012
2018-12-17T10:14:51.194Z,101012
2018-12-17T10:17:20.788Z,101013
2018-12-17T10:19:49.627Z,101019
2018-12-17T10:22:18.476Z,101015
2018-12-17T10:24:47.362Z,101008
2018-12-17T10:27:16.914Z,101010
2018-12-17T10:29:45.760Z,101008
2018-12-17T10:32:14.598Z,101007
2018-12-17T10:34:43.446Z,101005
2018-12-17T10:37:13.054Z,101001
2018-12-17T10:39:42.647Z,101011
2018-12-17T10:42:11.489Z,101009
2018-12-17T10:44:40.349Z,101003
2018-12-17T10:47:09.189Z,101010
2018-12-17T10:49:38.029Z,101011
2018-12-17T10:52:06.864Z,101010
2018-12-17T10:54:35.694Z,101006
2018-12-17T10:57:04.545Z,101008
2018-12-17T10:59:33.391Z,101008
2018-12-17T11:02:03.101Z,101014
2018-12-17T11:04:31.966Z,101004
2018-12-17T11:07:01.545Z,101002
2018-12-17T11:09:30.395Z,101004
2018-12-17T11:11:59.243Z,101001
2018-12-17T11:14:28.071Z,101001
2018-12-17T11:16:56.901Z,100999
2018-12-17T11:19:25.752Z,100996
2018-12-17T11:21:54.594Z,101005
2018-12-17T11:24:23.441Z,101019
2018-12-17T11:26:52.274Z,101007
2018-12-17T11:29:21.889Z,101008
2018-12-17T11:31:50.699Z,101001
2018-12-17T11:34:19.554Z,101011
2018-12-17T11:36:48.465Z,101003
2018-12-17T11:39:17.267Z,101009
2018-12-17T11:41:46.123Z,101009
2018-12-17T11:44:15.774Z,101006
2018-12-17T11:46:44.575Z,101001
2018-12-17T11:49:13.414Z,100999
2018-12-17T11:51:42.253Z,100996
2018-12-17T11:54:11.103Z,101002
2018-12-17T11:56:43.141Z,100997
2018-12-17T11:59:11.967Z,101001
2018-12-17T12:01:40.809Z,100994
2018-12-17T12:04:09.647Z,100998
2018-12-17T12:06:38.487Z,100992
2018-12-17T12:09:07.333Z,100998
2018-12-17T12:11:36.789Z,101004
2018-12-17T12:14:05.633Z,101007
2018-12-17T12:16:34.485Z,101010
2018-12-17T12:19:03.337Z,101017
2018-12-17T12:21:32.179Z,100995
2018-12-17T12:24:01.015Z,100999
2018-12-17T12:26:29.857Z,101018
2018-12-17T12:28:58.709Z,101020
2018-12-17T12:31:27.559Z,101015
2018-12-17T12:33:56.415Z,101025
2018-12-17T12:36:25.254Z,101039
2018-12-17T12:38:54.099Z,101035
2018-12-17T12:41:22.945Z,101055
2018-12-17T12:43:51.791Z,101052
2018-12-17T12:46:20.666Z,101055
2018-12-17T12:48:49.519Z,101064
2018-12-17T12:51:18.354Z,101071
2018-12-17T12:53:47.205Z,101081
2018-12-17T12:56:16.059Z,101080
2018-12-17T12:58:45.687Z,101081
2018-12-17T13:01:15.239Z,101084
2018-12-17T13:03:44.097Z,101089
2018-12-17T13:06:12.935Z,101099
2018-12-17T13:08:42.545Z,101107
2018-12-17T13:11:12.133Z,101108
2018-12-17T13:13:40.982Z,101120
2018-12-17T13:16:09.816Z,101110
2018-12-17T13:18:38.651Z,101113
2018-12-17T13:21:07.532Z,101106
2018-12-17T13:23:36.350Z,101101
2018-12-17T13:26:05.198Z,101106
2018-12-17T13:28:34.779Z,101102
2018-12-17T13:31:03.640Z,101094
2018-12-17T13:33:32.489Z,101085
2018-12-17T13:36:02.140Z,101085
2018-12-17T13:38:30.933Z,101087
2018-12-17T13:40:59.761Z,101105
2018-12-17T13:43:28.624Z,101117
2018-12-17T13:45:57.452Z,101120
2018-12-17T13:48:26.315Z,101124
2018-12-17T13:50:55.743Z,101123
2018-12-17T13:53:30.202Z,101129
2018-12-17T13:55:59.037Z,101134
2018-12-17T13:58:28.621Z,101139
2018-12-17T14:00:57.455Z,101148
2018-12-17T14:03:26.302Z,101143
2018-12-17T14:05:55.161Z,101154
2018-12-17T14:08:24.000Z,101155
2018-12-17T14:10:52.855Z,101159
2018-12-17T14:13:21.730Z,101166
2018-12-17T14:15:50.536Z,101165
2018-12-17T14:18:25.022Z,101159
2018-12-17T14:20:59.351Z,101164
2018-12-17T14:23:28.193Z,101166
2018-12-17T14:25:57.050Z,101168
2018-12-17T14:28:25.905Z,101175
2018-12-17T14:30:54.746Z,101183
2018-12-17T14:33:23.600Z,101185
2018-12-17T14:35:58.089Z,101188
2018-12-17T14:38:26.947Z,101189
2018-12-17T14:40:55.808Z,101193
2018-12-17T14:43:24.664Z,101199
2018-12-17T14:45:53.575Z,101210
2018-12-17T14:48:22.354Z,101215
2018-12-17T14:50:51.208Z,101204
2018-12-17T14:53:20.068Z,101202
2018-12-17T14:55:48.915Z,101205
2018-12-17T14:58:17.748Z,101211
2018-12-17T15:00:46.582Z,101213
2018-12-17T15:03:15.426Z,101216
2018-12-17T15:05:44.270Z,101220
2018-12-17T15:08:13.147Z,101219
2018-12-17T15:10:41.960Z,101223
2018-12-17T15:13:11.066Z,101225
2018-12-17T15:15:39.916Z,101229
2018-12-17T15:18:08.752Z,101231
2018-12-17T15:20:37.594Z,101233
2018-12-17T15:23:07.177Z,101235
2018-12-17T15:25:36.053Z,101241
2018-12-17T15:28:04.904Z,101237
2018-12-17T15:30:33.744Z,101241
2018-12-17T15:33:03.320Z,101246
2018-12-17T15:35:32.167Z,101255
2018-12-17T15:38:01.756Z,101259
2018-12-17T15:40:30.613Z,101262
2018-12-17T15:42:59.460Z,101264
2018-12-17T15:45:28.299Z,101261
2018-12-17T15:47:57.135Z,101265
2018-12-17T15:50:25.991Z,101271
2018-12-17T15:52:54.838Z,101277
2018-12-17T15:55:23.698Z,101279
2018-12-17T15:57:52.537Z,101278
2018-12-17T16:00:21.375Z,101285
2018-12-17T16:02:50.224Z,101288
2018-12-17T16:05:19.079Z,101299
2018-12-17T16:07:47.935Z,101299
2018-12-17T16:10:17.527Z,101305
2018-12-17T16:12:46.463Z,101310
2018-12-17T16:15:15.265Z,101311
2018-12-17T16:17:44.097Z,101310
2018-12-17T16:20:12.941Z,101314
2018-12-17T16:22:41.786Z,101330
2018-12-17T16:25:10.647Z,101324
2018-12-17T16:27:39.482Z,101333
2018-12-17T16:30:08.323Z,101333
2018-12-17T16:32:37.175Z,101328
2018-12-17T16:35:06.007Z,101324
2018-12-17T16:37:34.869Z,101324
2018-12-17T16:40:03.708Z,101326
2018-12-17T16:42:33.302Z,101336
2018-12-17T16:45:02.907Z,101337
2018-12-17T16:47:31.768Z,101340
2018-12-17T16:50:00.634Z,101344
2018-12-17T16:52:29.469Z,101329
2018-12-17T16:54:58.324Z,101343
2018-12-17T16:57:27.165Z,101343
2018-12-17T16:59:56.023Z,101345
2018-12-17T17:02:24.914Z,101342
2018-12-17T17:04:53.717Z,101348
2018-12-17T17:07:22.566Z,101348
2018-12-17T17:09:51.421Z,101346
2018-12-17T17:12:20.273Z,101348
2018-12-17T17:14:49.132Z,101345
2018-12-17T17:17:17.967Z,101349
2018-12-17T17:19:50.856Z,101366
2018-12-17T17:22:16.406Z,101374
2018-12-17T17:24:45.251Z,101379
2018-12-17T17:27:14.093Z,101372
2018-12-17T17:29:42.944Z,101383
2018-12-17T17:32:12.529Z,101381
2018-12-17T17:34:41.477Z,101384
2018-12-17T17:37:10.240Z,101393
2018-12-17T17:39:39.177Z,101396
2018-12-17T17:42:07.999Z,101397
2018-12-17T17:44:36.833Z,101395
2018-12-17T17:47:05.686Z,101391
2018-12-17T17:49:35.265Z,101393
2018-12-17T17:52:04.126Z,101395
2018-12-17T17:54:32.973Z,101397
2018-12-17T17:57:02.578Z,101395
2018-12-17T17:59:31.438Z,101400
2018-12-17T18:02:01.025Z,101400
2018-12-17T18:04:29.933Z,101403
2018-12-17T18:06:58.801Z,101417
2018-12-17T18:09:27.637Z,101411
2018-12-17T18:11:56.503Z,101414
2018-12-17T18:14:26.111Z,101417
2018-12-17T18:16:54.956Z,101437
2018-12-17T18:19:23.796Z,101429
2018-12-17T18:21:52.651Z,101435
2018-12-17T18:24:21.500Z,101426
2018-12-17T18:26:50.337Z,101426
2018-12-17T18:29:19.934Z,101440
2018-12-17T18:31:48.778Z,101440
2018-12-17T18:34:17.613Z,101440
2018-12-17T18:36:46.472Z,101446
2018-12-17T18:39:15.587Z,101446
2018-12-17T18:41:44.439Z,101451
2018-12-17T18:44:13.303Z,101454
2018-12-17T18:46:42.899Z,101467
2018-12-17T18:49:11.742Z,101461
2018-12-17T18:51:40.609Z,101462
2018-12-17T18:54:09.445Z,101457
2018-12-17T18:56:38.278Z,101468
2018-12-17T18:59:07.136Z,101470
2018-12-17T19:01:36.020Z,101474
2018-12-17T19:04:04.829Z,101478
2018-12-17T19:06:33.667Z,101477
2018-12-17T19:09:02.511Z,101481
2018-12-17T19:11:32.090Z,101488
2018-12-17T19:14:00.924Z,101476
2018-12-17T19:16:29.864Z,101483
2018-12-17T19:18:58.691Z,101494
2018-12-17T19:21:28.281Z,101489
2018-12-17T19:23:57.867Z,101489
2018-12-17T19:26:26.706Z,101493
2018-12-17T19:28:55.557Z,101507
2018-12-17T19:31:24.439Z,101510
2018-12-17T19:33:53.265Z,101505
2018-12-17T19:36:22.840Z,101509
2018-12-17T19:38:52.436Z,101515
2018-12-17T19:41:21.272Z,101512
2018-12-17T19:43:50.134Z,101526
2018-12-17T19:46:18.990Z,101527
2018-12-17T19:48:47.833Z,101534
2018-12-17T19:51:16.691Z,101530
2018-12-17T19:53:45.579Z,101535
2018-12-17T19:56:14.426Z,101530
2018-12-17T19:58:43.327Z,101533
2018-12-17T20:01:12.154Z,101525
2018-12-17T20:03:41.017Z,101525
2018-12-17T20:06:09.873Z,101529
2018-12-17T20:08:38.743Z,101532
2018-12-17T20:11:08.334Z,101545
2018-12-17T20:13:37.194Z,101541
2018-12-17T20:16:06.045Z,101548
2018-12-17T20:18:34.906Z,101558
2018-12-17T20:21:03.750Z,101559
2018-12-17T20:23:32.595Z,101550
2018-12-17T20:26:01.447Z,101552
2018-12-17T20:28:30.288Z,101561
2018-12-17T20:30:59.169Z,101556
2018-12-17T20:33:28.006Z,101558
2018-12-17T20:35:56.850Z,101559
2018-12-17T20:38:25.726Z,101559
2018-12-17T20:40:54.632Z,101584
2018-12-17T20:43:24.250Z,101555
2018-12-17T20:45:53.069Z,101563
2018-12-17T20:48:21.920Z,101565
2018-12-17T20:50:50.785Z,101572
2018-12-17T20:53:19.627Z,101577
2018-12-17T20:55:48.483Z,101572
2018-12-17T20:58:17.358Z,101575
2018-12-17T21:00:46.211Z,101578
2018-12-17T21:03:15.211Z,101580
2018-12-17T21:05:44.076Z,101571
2018-12-17T21:08:12.931Z,101570
2018-12-17T21:10:41.817Z,101564
2018-12-17T21:13:10.664Z,101562
2018-12-17T21:15:39.569Z,101571
2018-12-17T21:18:08.378Z,101565
2018-12-17T21:20:37.975Z,101572
2018-12-17T21:23:07.671Z,101571
2018-12-17T21:25:35.676Z,101575
2018-12-17T21:28:04.550Z,101576
2018-12-17T21:30:33.399Z,101571
2018-12-17T21:33:06.709Z,101564
2018-12-17T21:35:31.083Z,101569
2018-12-17T21:37:59.942Z,101566
2018-12-17T21:40:28.791Z,101575
2018-12-17T21:42:57.669Z,101573
2018-12-17T21:45:26.525Z,101575
2018-12-17T21:47:55.367Z,101566
2018-12-17T21:50:24.229Z,101575
2018-12-17T21:52:53.085Z,101581
2018-12-17T21:55:21.935Z,101578
2018-12-17T21:57:50.788Z,101582
2018-12-17T22:00:19.633Z,101577
2018-12-17T22:02:48.487Z,101577
2018-12-17T22:05:18.081Z,101576
2018-12-17T22:07:46.936Z,101582
2018-12-17T22:10:15.786Z,101585
2018-12-17T22:12:45.418Z,101581
2018-12-17T22:15:15.003Z,101595
2018-12-17T22:17:43.820Z,101594
2018-12-17T22:20:12.664Z,101594
2018-12-17T22:22:41.505Z,101597
2018-12-17T22:25:10.354Z,101597
2018-12-17T22:27:39.247Z,101599
2018-12-17T22:30:08.829Z,101598
2018-12-17T22:32:38.274Z,101599
2018-12-17T22:35:07.132Z,101597
2018-12-17T22:37:36.718Z,101593
2018-12-17T22:40:05.575Z,101599
2018-12-17T22:42:34.421Z,101608
2018-12-17T22:45:03.302Z,101603
2018-12-17T22:47:32.740Z,101614
2018-12-17T22:50:01.576Z,101608
2018-12-17T22:52:30.423Z,101602
2018-12-17T22:54:59.280Z,101606
2018-12-17T22:57:28.139Z,101606
2018-12-17T22:59:56.995Z,101605
2018-12-17T23:02:25.854Z,101606
2018-12-17T23:04:54.724Z,101609
2018-12-17T23:07:23.569Z,101599
2018-12-17T23:10:10.432Z,101603
2018-12-17T23:12:57.156Z,101600
2018-12-17T23:15:43.794Z,101603
2018-12-17T23:18:11.889Z,101608
2018-12-17T23:20:40.753Z,101612
2018-12-17T23:23:09.594Z,101613
2018-12-17T23:25:38.440Z,101618
2018-12-17T23:28:07.286Z,101609
2018-12-17T23:30:36.888Z,101617
2018-12-17T23:33:05.746Z,101613
2018-12-17T23:36:22.471Z,101613
2018-12-17T23:38:51.306Z,101618
2018-12-17T23:41:20.158Z,101612
2018-12-17T23:43:49.010Z,101608
2018-12-17T23:46:17.850Z,101614
2018-12-17T23:48:47.448Z,101612
2018-12-17T23:51:16.284Z,101605
2018-12-17T23:53:45.132Z,101598
2018-12-17T23:56:14.743Z,101599
2018-12-17T23:58:43.602Z,101606
